THY3VP LTFM-LOWS
Flight info
| Callsign | THY3VP |
|---|---|
| Flight time | 2h 9m |
| Altitude | 32000 |
| Route | VADEN N618 BAKLO DCT XANEX DCT UTEKA DCT TUVAR DCT LAKIK DCT OBUTI DCT NUBRA NUBRA3R |
| Aircraft | B739/M-SDE2E3FGHIRWXY/LB1 |
Departure
| Time | 2026-04-26 22:15 |
|---|---|
| Airport | İstanbul Airport (LTFM) |
Arrival
| Time | 2026-04-27 00:24 |
|---|---|
| Airport | Salzburg Airport (LOWS) |
| Time | Latitude | Longitude | Altitude | Speed | Heading |
|---|---|---|---|---|---|
| 2026-04-26 21:32 | 41.26698 | 28.73788 | 333 ft | 0 kts | 269° |
| 2026-04-26 21:58 | 41.26698 | 28.73801 | 328 ft | 4 kts | 273° |
| 2026-04-26 21:58 | 41.26694 | 28.73835 | 331 ft | 4 kts | 295° |
| 2026-04-26 21:59 | 41.26679 | 28.73863 | 330 ft | 4 kts | 326° |
| 2026-04-26 21:59 | 41.26655 | 28.73877 | 332 ft | 4 kts | 353° |
| 2026-04-26 21:59 | 41.26645 | 28.73878 | 331 ft | 0 kts | 358° |
| 2026-04-26 22:03 | 41.26647 | 28.73878 | 333 ft | 1 kts | 358° |
| 2026-04-26 22:04 | 41.26658 | 28.73878 | 311 ft | 5 kts | 358° |
| 2026-04-26 22:04 | 41.26703 | 28.73876 | 330 ft | 8 kts | 358° |
| 2026-04-26 22:04 | 41.26755 | 28.73875 | 331 ft | 7 kts | 359° |
| 2026-04-26 22:04 | 41.26805 | 28.73874 | 332 ft | 7 kts | 359° |
| 2026-04-26 22:05 | 41.26857 | 28.73872 | 333 ft | 8 kts | 359° |
| 2026-04-26 22:05 | 41.26922 | 28.73871 | 330 ft | 10 kts | 359° |
| 2026-04-26 22:05 | 41.26994 | 28.73870 | 330 ft | 11 kts | 358° |
| 2026-04-26 22:05 | 41.27069 | 28.73867 | 329 ft | 11 kts | 359° |
| 2026-04-26 22:06 | 41.27148 | 28.73866 | 333 ft | 11 kts | 359° |
| 2026-04-26 22:06 | 41.27229 | 28.73864 | 332 ft | 12 kts | 359° |
| 2026-04-26 22:06 | 41.27314 | 28.73862 | 332 ft | 12 kts | 359° |
| 2026-04-26 22:06 | 41.27400 | 28.73860 | 332 ft | 12 kts | 359° |
| 2026-04-26 22:07 | 41.27484 | 28.73858 | 329 ft | 12 kts | 359° |
| 2026-04-26 22:07 | 41.27563 | 28.73856 | 333 ft | 9 kts | 358° |
| 2026-04-26 22:07 | 41.27602 | 28.73810 | 332 ft | 8 kts | 280° |
| 2026-04-26 22:07 | 41.27604 | 28.73733 | 333 ft | 8 kts | 269° |
| 2026-04-26 22:08 | 41.27603 | 28.73656 | 333 ft | 9 kts | 269° |
| 2026-04-26 22:08 | 41.27603 | 28.73575 | 333 ft | 9 kts | 269° |
| 2026-04-26 22:08 | 41.27600 | 28.73494 | 333 ft | 11 kts | 267° |
| 2026-04-26 22:08 | 41.27598 | 28.73389 | 332 ft | 11 kts | 269° |
| 2026-04-26 22:09 | 41.27598 | 28.73285 | 330 ft | 11 kts | 270° |
| 2026-04-26 22:09 | 41.27599 | 28.73185 | 331 ft | 11 kts | 271° |
| 2026-04-26 22:09 | 41.27594 | 28.73087 | 331 ft | 10 kts | 267° |
| 2026-04-26 22:09 | 41.27585 | 28.72996 | 332 ft | 10 kts | 229° |
| 2026-04-26 22:10 | 41.27520 | 28.72973 | 332 ft | 10 kts | 181° |
| 2026-04-26 22:10 | 41.27452 | 28.72975 | 331 ft | 10 kts | 179° |
| 2026-04-26 22:10 | 41.27376 | 28.72977 | 331 ft | 12 kts | 179° |
| 2026-04-26 22:10 | 41.27279 | 28.72979 | 332 ft | 15 kts | 177° |
| 2026-04-26 22:11 | 41.27177 | 28.72979 | 329 ft | 14 kts | 179° |
| 2026-04-26 22:11 | 41.27079 | 28.72985 | 333 ft | 14 kts | 178° |
| 2026-04-26 22:11 | 41.26983 | 28.72986 | 333 ft | 14 kts | 179° |
| 2026-04-26 22:11 | 41.26888 | 28.72989 | 332 ft | 13 kts | 178° |
| 2026-04-26 22:12 | 41.26797 | 28.72991 | 330 ft | 13 kts | 179° |
| 2026-04-26 22:12 | 41.26727 | 28.72964 | 329 ft | 10 kts | 236° |
| 2026-04-26 22:12 | 41.26715 | 28.72874 | 333 ft | 10 kts | 268° |
| 2026-04-26 22:12 | 41.26714 | 28.72776 | 329 ft | 12 kts | 270° |
| 2026-04-26 22:13 | 41.26713 | 28.72660 | 329 ft | 13 kts | 269° |
| 2026-04-26 22:13 | 41.26715 | 28.72548 | 331 ft | 9 kts | 289° |
| 2026-04-26 22:13 | 41.26766 | 28.72514 | 331 ft | 5 kts | 357° |
| 2026-04-26 22:13 | 41.26773 | 28.72514 | 333 ft | 0 kts | 358° |
| 2026-04-26 22:14 | 41.26915 | 28.72509 | 332 ft | 54 kts | 358° |
| 2026-04-26 22:14 | 41.27523 | 28.72494 | 330 ft | 118 kts | 359° |
| 2026-04-26 22:14 | 41.28516 | 28.72451 | 373 ft | 163 kts | 356° |
| 2026-04-26 22:14 | 41.29695 | 28.72486 | 844 ft | 174 kts | 357° |
| 2026-04-26 22:15 | 41.30915 | 28.72494 | 1590 ft | 169 kts | 356° |
| 2026-04-26 22:15 | 41.32041 | 28.72479 | 2505 ft | 158 kts | 356° |
| 2026-04-26 22:15 | 41.33141 | 28.72476 | 3172 ft | 156 kts | 358° |
| 2026-04-26 22:15 | 41.34225 | 28.72477 | 3751 ft | 158 kts | 358° |
| 2026-04-26 22:16 | 41.35382 | 28.72478 | 4065 ft | 177 kts | 355° |
| 2026-04-26 22:16 | 41.36590 | 28.71920 | 4280 ft | 196 kts | 322° |
| 2026-04-26 22:16 | 41.37444 | 28.70416 | 4573 ft | 213 kts | 304° |
| 2026-04-26 22:16 | 41.38211 | 28.68616 | 4782 ft | 236 kts | 302° |
| 2026-04-26 22:17 | 41.39066 | 28.66630 | 5070 ft | 255 kts | 303° |
| 2026-04-26 22:17 | 41.39976 | 28.64575 | 5845 ft | 257 kts | 303° |
| 2026-04-26 22:17 | 41.40929 | 28.62515 | 6526 ft | 265 kts | 303° |
| 2026-04-26 22:17 | 41.41915 | 28.60423 | 7248 ft | 268 kts | 303° |
| 2026-04-26 22:18 | 41.42914 | 28.58312 | 8011 ft | 270 kts | 303° |
| 2026-04-26 22:18 | 41.43926 | 28.56181 | 8763 ft | 273 kts | 303° |
| 2026-04-26 22:18 | 41.44934 | 28.54058 | 9633 ft | 271 kts | 302° |
| 2026-04-26 22:18 | 41.45955 | 28.51907 | 10268 ft | 278 kts | 302° |
| 2026-04-26 22:19 | 41.47031 | 28.49639 | 10453 ft | 301 kts | 302° |
| 2026-04-26 22:19 | 41.48186 | 28.47207 | 10693 ft | 319 kts | 302° |
| 2026-04-26 22:19 | 41.49403 | 28.44647 | 11084 ft | 331 kts | 302° |
| 2026-04-26 22:19 | 41.50651 | 28.42013 | 11557 ft | 340 kts | 302° |
| 2026-04-26 22:20 | 41.51922 | 28.39327 | 12213 ft | 343 kts | 302° |
| 2026-04-26 22:20 | 41.52766 | 28.37544 | 12732 ft | 342 kts | 302° |
| 2026-04-26 22:20 | 41.54485 | 28.33906 | 13443 ft | 352 kts | 302° |
| 2026-04-26 22:20 | 41.55795 | 28.31135 | 14111 ft | 353 kts | 302° |
| 2026-04-26 22:21 | 41.57106 | 28.28357 | 14762 ft | 354 kts | 302° |
| 2026-04-26 22:21 | 41.58428 | 28.25554 | 15270 ft | 360 kts | 302° |
| 2026-04-26 22:21 | 41.59768 | 28.22710 | 15832 ft | 362 kts | 303° |
| 2026-04-26 22:21 | 41.61076 | 28.19915 | 16843 ft | 352 kts | 303° |
| 2026-04-26 22:22 | 41.62372 | 28.17162 | 17419 ft | 354 kts | 304° |
| 2026-04-26 22:22 | 41.63684 | 28.14375 | 17970 ft | 359 kts | 303° |
| 2026-04-26 22:22 | 41.65047 | 28.11481 | 18347 ft | 367 kts | 303° |
| 2026-04-26 22:22 | 41.66407 | 28.08586 | 18644 ft | 374 kts | 304° |
| 2026-04-26 22:23 | 41.67800 | 28.05606 | 19246 ft | 374 kts | 304° |
| 2026-04-26 22:23 | 41.69167 | 28.02688 | 19778 ft | 374 kts | 304° |
| 2026-04-26 22:23 | 41.70565 | 27.99696 | 20351 ft | 375 kts | 304° |
| 2026-04-26 22:23 | 41.71939 | 27.96759 | 20781 ft | 379 kts | 304° |
| 2026-04-26 22:24 | 41.73343 | 27.93754 | 21228 ft | 383 kts | 304° |
| 2026-04-26 22:24 | 41.74763 | 27.90710 | 21600 ft | 388 kts | 303° |
| 2026-04-26 22:24 | 41.76203 | 27.87621 | 21985 ft | 392 kts | 304° |
| 2026-04-26 22:24 | 41.77652 | 27.84511 | 22376 ft | 397 kts | 304° |
| 2026-04-26 22:25 | 41.79116 | 27.81360 | 22812 ft | 400 kts | 304° |
| 2026-04-26 22:25 | 41.80580 | 27.78200 | 23376 ft | 400 kts | 305° |
| 2026-04-26 22:25 | 41.82047 | 27.75036 | 23905 ft | 400 kts | 304° |
| 2026-04-26 22:25 | 41.83538 | 27.71824 | 24006 ft | 410 kts | 304° |
| 2026-04-26 22:26 | 41.85050 | 27.68558 | 24333 ft | 414 kts | 304° |
| 2026-04-26 22:26 | 41.86564 | 27.65279 | 24914 ft | 409 kts | 304° |
| 2026-04-26 22:26 | 41.88063 | 27.62031 | 25284 ft | 412 kts | 304° |
| 2026-04-26 22:26 | 41.89588 | 27.58724 | 25571 ft | 415 kts | 305° |
| 2026-04-26 22:27 | 41.91099 | 27.55443 | 26130 ft | 412 kts | 305° |
| 2026-04-26 22:27 | 41.92611 | 27.52163 | 26445 ft | 416 kts | 304° |
| 2026-04-26 22:27 | 41.94145 | 27.48831 | 26658 ft | 421 kts | 305° |
| 2026-04-26 22:27 | 41.95684 | 27.45479 | 27081 ft | 422 kts | 304° |
| 2026-04-26 22:28 | 41.97225 | 27.42122 | 27341 ft | 425 kts | 304° |
| 2026-04-26 22:28 | 41.98774 | 27.38741 | 27880 ft | 422 kts | 304° |
| 2026-04-26 22:28 | 42.00302 | 27.35397 | 28556 ft | 417 kts | 304° |
| 2026-04-26 22:28 | 42.01826 | 27.32066 | 28801 ft | 422 kts | 304° |
| 2026-04-26 22:29 | 42.03350 | 27.28733 | 28990 ft | 426 kts | 304° |
| 2026-04-26 22:29 | 42.04886 | 27.25363 | 29710 ft | 418 kts | 304° |
| 2026-04-26 22:29 | 42.06409 | 27.22063 | 30363 ft | 413 kts | 306° |
| 2026-04-26 22:29 | 42.08166 | 27.19019 | 30595 ft | 413 kts | 313° |
| 2026-04-26 22:30 | 42.12093 | 27.13258 | 31101 ft | 415 kts | 314° |
| 2026-04-26 22:30 | 42.14021 | 27.10405 | 31714 ft | 409 kts | 313° |
| 2026-04-26 22:30 | 42.15928 | 27.07563 | 32090 ft | 408 kts | 313° |
| 2026-04-26 22:31 | 42.19752 | 27.01821 | 32120 ft | 413 kts | 313° |
| 2026-04-26 22:31 | 42.23567 | 26.96060 | 32119 ft | 411 kts | 313° |
| 2026-04-26 22:32 | 42.27371 | 26.90300 | 32130 ft | 411 kts | 313° |
| 2026-04-26 22:32 | 42.31153 | 26.84563 | 32108 ft | 413 kts | 313° |
| 2026-04-26 22:33 | 42.36944 | 26.75760 | 32114 ft | 420 kts | 312° |
| 2026-04-26 22:34 | 42.40816 | 26.69852 | 32130 ft | 420 kts | 311° |
| 2026-04-26 22:34 | 42.44700 | 26.63920 | 32119 ft | 421 kts | 311° |
| 2026-04-26 22:35 | 42.48589 | 26.57966 | 32129 ft | 422 kts | 311° |
| 2026-04-26 22:35 | 42.52476 | 26.52006 | 32130 ft | 422 kts | 311° |
| 2026-04-26 22:36 | 42.55863 | 26.45553 | 32144 ft | 420 kts | 298° |
| 2026-04-26 22:36 | 42.58589 | 26.38541 | 32134 ft | 420 kts | 298° |
| 2026-04-26 22:37 | 42.61285 | 26.31585 | 32117 ft | 419 kts | 298° |
| 2026-04-26 22:37 | 42.64011 | 26.24613 | 32097 ft | 417 kts | 298° |
| 2026-04-26 22:38 | 42.66737 | 26.17665 | 32098 ft | 416 kts | 298° |
| 2026-04-26 22:38 | 42.69450 | 26.10739 | 32121 ft | 414 kts | 298° |
| 2026-04-26 22:39 | 42.72148 | 26.03834 | 32099 ft | 413 kts | 298° |
| 2026-04-26 22:39 | 42.74830 | 25.96958 | 32102 ft | 410 kts | 298° |
| 2026-04-26 22:40 | 42.77494 | 25.90107 | 32101 ft | 409 kts | 298° |
| 2026-04-26 22:40 | 42.80151 | 25.83262 | 32094 ft | 409 kts | 298° |
| 2026-04-26 22:41 | 42.82804 | 25.76407 | 32106 ft | 409 kts | 298° |
| 2026-04-26 22:41 | 42.85453 | 25.69546 | 32099 ft | 409 kts | 298° |
| 2026-04-26 22:42 | 42.88108 | 25.62655 | 32089 ft | 411 kts | 298° |
| 2026-04-26 22:42 | 42.90763 | 25.55746 | 32143 ft | 412 kts | 298° |
| 2026-04-26 22:43 | 42.93406 | 25.48851 | 32131 ft | 414 kts | 298° |
| 2026-04-26 22:43 | 42.96072 | 25.41878 | 32127 ft | 415 kts | 298° |
| 2026-04-26 22:44 | 42.98742 | 25.34878 | 32125 ft | 416 kts | 297° |
| 2026-04-26 22:44 | 43.01413 | 25.27861 | 32112 ft | 416 kts | 297° |
| 2026-04-26 22:45 | 43.04078 | 25.20838 | 32104 ft | 416 kts | 297° |
| 2026-04-26 22:45 | 43.06289 | 25.15001 | 32118 ft | 415 kts | 297° |
| 2026-04-26 22:46 | 43.08939 | 25.07985 | 32102 ft | 415 kts | 297° |
| 2026-04-26 22:46 | 43.11580 | 25.00980 | 32127 ft | 414 kts | 297° |
| 2026-04-26 22:47 | 43.14098 | 24.93904 | 32118 ft | 413 kts | 294° |
| 2026-04-26 22:47 | 43.16372 | 24.86684 | 32119 ft | 413 kts | 293° |
| 2026-04-26 22:48 | 43.18623 | 24.79437 | 32126 ft | 413 kts | 293° |
| 2026-04-26 22:48 | 43.20884 | 24.72212 | 32130 ft | 413 kts | 293° |
| 2026-04-26 22:49 | 43.23160 | 24.64975 | 32136 ft | 413 kts | 293° |
| 2026-04-26 22:49 | 43.25436 | 24.57730 | 32141 ft | 413 kts | 293° |
| 2026-04-26 22:50 | 43.27706 | 24.50490 | 32138 ft | 414 kts | 293° |
| 2026-04-26 22:50 | 43.29961 | 24.43276 | 32133 ft | 413 kts | 293° |
| 2026-04-26 22:51 | 43.32223 | 24.36019 | 32122 ft | 413 kts | 292° |
| 2026-04-26 22:51 | 43.34478 | 24.28762 | 32144 ft | 413 kts | 292° |
| 2026-04-26 22:52 | 43.36728 | 24.21504 | 32142 ft | 413 kts | 292° |
| 2026-04-26 22:52 | 43.38972 | 24.14245 | 32130 ft | 412 kts | 292° |
| 2026-04-26 22:53 | 43.41212 | 24.06977 | 32155 ft | 412 kts | 292° |
| 2026-04-26 22:53 | 43.43446 | 23.99709 | 32155 ft | 413 kts | 292° |
| 2026-04-26 22:54 | 43.45677 | 23.92429 | 32158 ft | 413 kts | 292° |
| 2026-04-26 22:54 | 43.47909 | 23.85127 | 32162 ft | 413 kts | 292° |
| 2026-04-26 22:55 | 43.50135 | 23.77822 | 32162 ft | 413 kts | 292° |
| 2026-04-26 22:55 | 43.52354 | 23.70522 | 32163 ft | 413 kts | 292° |
| 2026-04-26 22:56 | 43.54567 | 23.63218 | 32162 ft | 413 kts | 292° |
| 2026-04-26 22:56 | 43.56776 | 23.55910 | 32158 ft | 412 kts | 292° |
| 2026-04-26 22:57 | 43.58974 | 23.48617 | 32171 ft | 412 kts | 292° |
| 2026-04-26 22:57 | 43.61149 | 23.41377 | 32171 ft | 411 kts | 291° |
| 2026-04-26 22:58 | 43.63328 | 23.34106 | 32177 ft | 410 kts | 291° |
| 2026-04-26 22:58 | 43.65498 | 23.26843 | 32175 ft | 409 kts | 291° |
| 2026-04-26 22:59 | 43.67661 | 23.19583 | 32168 ft | 408 kts | 291° |
| 2026-04-26 22:59 | 43.69818 | 23.12324 | 32184 ft | 408 kts | 291° |
| 2026-04-26 23:00 | 43.71971 | 23.05057 | 32183 ft | 409 kts | 291° |
| 2026-04-26 23:00 | 43.74123 | 22.97771 | 32192 ft | 409 kts | 291° |
| 2026-04-26 23:01 | 43.76276 | 22.90462 | 32178 ft | 410 kts | 291° |
| 2026-04-26 23:01 | 43.78426 | 22.83140 | 32194 ft | 411 kts | 291° |
| 2026-04-26 23:02 | 43.80578 | 22.75792 | 32181 ft | 412 kts | 291° |
| 2026-04-26 23:02 | 43.82712 | 22.68482 | 32193 ft | 413 kts | 291° |
| 2026-04-26 23:03 | 43.84860 | 22.61106 | 32195 ft | 413 kts | 291° |
| 2026-04-26 23:03 | 43.87004 | 22.53719 | 32203 ft | 413 kts | 291° |
| 2026-04-26 23:04 | 43.89144 | 22.46329 | 32198 ft | 413 kts | 291° |
| 2026-04-26 23:04 | 43.91290 | 22.38945 | 32198 ft | 413 kts | 293° |
| 2026-04-26 23:05 | 43.93914 | 22.31860 | 32217 ft | 413 kts | 297° |
| 2026-04-26 23:05 | 43.96686 | 22.24887 | 32203 ft | 412 kts | 297° |
| 2026-04-26 23:06 | 43.99433 | 22.17912 | 32210 ft | 411 kts | 297° |
| 2026-04-26 23:06 | 44.02141 | 22.10934 | 32213 ft | 410 kts | 297° |
| 2026-04-26 23:07 | 44.04807 | 22.04012 | 32211 ft | 409 kts | 297° |
| 2026-04-26 23:07 | 44.07477 | 21.97051 | 32213 ft | 408 kts | 297° |
| 2026-04-26 23:08 | 44.10142 | 21.90086 | 32221 ft | 408 kts | 297° |
| 2026-04-26 23:08 | 44.12800 | 21.83122 | 32228 ft | 408 kts | 297° |
| 2026-04-26 23:09 | 44.15460 | 21.76136 | 32231 ft | 409 kts | 297° |
| 2026-04-26 23:09 | 44.18125 | 21.69122 | 32226 ft | 410 kts | 297° |
| 2026-04-26 23:10 | 44.20790 | 21.62089 | 32230 ft | 410 kts | 297° |
| 2026-04-26 23:10 | 44.23449 | 21.55053 | 32224 ft | 410 kts | 297° |
| 2026-04-26 23:11 | 44.26099 | 21.48024 | 32232 ft | 409 kts | 297° |
| 2026-04-26 23:11 | 44.28723 | 21.41046 | 32225 ft | 408 kts | 297° |
| 2026-04-26 23:12 | 44.31353 | 21.34033 | 32221 ft | 407 kts | 297° |
| 2026-04-26 23:12 | 44.33972 | 21.27035 | 32228 ft | 406 kts | 297° |
| 2026-04-26 23:13 | 44.36584 | 21.20036 | 32243 ft | 406 kts | 297° |
| 2026-04-26 23:13 | 44.39191 | 21.13032 | 32228 ft | 406 kts | 297° |
| 2026-04-26 23:14 | 44.41790 | 21.06032 | 32228 ft | 405 kts | 297° |
| 2026-04-26 23:14 | 44.44384 | 20.99031 | 32232 ft | 405 kts | 297° |
| 2026-04-26 23:15 | 44.46971 | 20.92027 | 32235 ft | 406 kts | 297° |
| 2026-04-26 23:15 | 44.49562 | 20.84997 | 32235 ft | 406 kts | 297° |
| 2026-04-26 23:16 | 44.52136 | 20.77992 | 32237 ft | 407 kts | 297° |
| 2026-04-26 23:16 | 44.54728 | 20.70923 | 32236 ft | 408 kts | 297° |
| 2026-04-26 23:17 | 44.57319 | 20.63838 | 32238 ft | 409 kts | 297° |
| 2026-04-26 23:17 | 44.59910 | 20.56733 | 32236 ft | 409 kts | 296° |
| 2026-04-26 23:18 | 44.62499 | 20.49618 | 32240 ft | 409 kts | 296° |
| 2026-04-26 23:18 | 44.65083 | 20.42496 | 32243 ft | 409 kts | 296° |
| 2026-04-26 23:19 | 44.67658 | 20.35381 | 32241 ft | 408 kts | 296° |
| 2026-04-26 23:19 | 44.70227 | 20.28263 | 32237 ft | 408 kts | 296° |
| 2026-04-26 23:20 | 44.72784 | 20.21163 | 32241 ft | 407 kts | 296° |
| 2026-04-26 23:20 | 44.75332 | 20.14065 | 32237 ft | 406 kts | 296° |
| 2026-04-26 23:21 | 44.77868 | 20.06984 | 32253 ft | 405 kts | 296° |
| 2026-04-26 23:21 | 44.80396 | 19.99910 | 32241 ft | 404 kts | 296° |
| 2026-04-26 23:22 | 44.82894 | 19.92896 | 32244 ft | 403 kts | 296° |
| 2026-04-26 23:22 | 44.85401 | 19.85841 | 32243 ft | 402 kts | 296° |
| 2026-04-26 23:23 | 44.87896 | 19.78802 | 32240 ft | 401 kts | 296° |
| 2026-04-26 23:23 | 44.90405 | 19.71706 | 32244 ft | 401 kts | 296° |
| 2026-04-26 23:24 | 44.92875 | 19.64700 | 32248 ft | 402 kts | 296° |
| 2026-04-26 23:24 | 44.95363 | 19.57626 | 32249 ft | 403 kts | 296° |
| 2026-04-26 23:25 | 44.97852 | 19.50530 | 32252 ft | 403 kts | 296° |
| 2026-04-26 23:25 | 45.00340 | 19.43417 | 32233 ft | 404 kts | 296° |
| 2026-04-26 23:26 | 45.02831 | 19.36277 | 32251 ft | 405 kts | 296° |
| 2026-04-26 23:26 | 45.05323 | 19.29117 | 32252 ft | 407 kts | 296° |
| 2026-04-26 23:27 | 45.07817 | 19.21930 | 32250 ft | 408 kts | 296° |
| 2026-04-26 23:27 | 45.10315 | 19.14714 | 32247 ft | 408 kts | 296° |
| 2026-04-26 23:28 | 45.12839 | 19.07510 | 32247 ft | 409 kts | 299° |
| 2026-04-26 23:28 | 45.16003 | 19.00816 | 32247 ft | 409 kts | 304° |
| 2026-04-26 23:29 | 45.19306 | 18.94245 | 32246 ft | 409 kts | 304° |
| 2026-04-26 23:29 | 45.22576 | 18.87662 | 32247 ft | 408 kts | 304° |
| 2026-04-26 23:30 | 45.25820 | 18.81047 | 32236 ft | 408 kts | 304° |
| 2026-04-26 23:30 | 45.29049 | 18.74425 | 32249 ft | 407 kts | 304° |
| 2026-04-26 23:31 | 45.31726 | 18.68918 | 32249 ft | 407 kts | 304° |
| 2026-04-26 23:31 | 45.34940 | 18.62295 | 32251 ft | 407 kts | 304° |
| 2026-04-26 23:32 | 45.38673 | 18.54585 | 32252 ft | 407 kts | 304° |
| 2026-04-26 23:32 | 45.41882 | 18.47939 | 32252 ft | 407 kts | 304° |
| 2026-04-26 23:33 | 45.44568 | 18.42365 | 32253 ft | 408 kts | 304° |
| 2026-04-26 23:33 | 45.47774 | 18.35698 | 32260 ft | 408 kts | 304° |
| 2026-04-26 23:34 | 45.50975 | 18.29023 | 32253 ft | 408 kts | 304° |
| 2026-04-26 23:34 | 45.54179 | 18.22328 | 32253 ft | 408 kts | 303° |
| 2026-04-26 23:35 | 45.57355 | 18.15677 | 32252 ft | 408 kts | 303° |
| 2026-04-26 23:35 | 45.60546 | 18.08972 | 32249 ft | 408 kts | 303° |
| 2026-04-26 23:36 | 45.63592 | 18.02141 | 32254 ft | 408 kts | 301° |
| 2026-04-26 23:36 | 45.66572 | 17.95253 | 32255 ft | 407 kts | 301° |
| 2026-04-26 23:37 | 45.69557 | 17.88365 | 32254 ft | 407 kts | 301° |
| 2026-04-26 23:37 | 45.72545 | 17.81493 | 32254 ft | 407 kts | 301° |
| 2026-04-26 23:38 | 45.75532 | 17.74619 | 32259 ft | 406 kts | 301° |
| 2026-04-26 23:38 | 45.78510 | 17.67754 | 32258 ft | 406 kts | 301° |
| 2026-04-26 23:39 | 45.81484 | 17.60880 | 32267 ft | 405 kts | 301° |
| 2026-04-26 23:39 | 45.84451 | 17.54005 | 32258 ft | 405 kts | 301° |
| 2026-04-26 23:40 | 45.87390 | 17.47179 | 32257 ft | 404 kts | 301° |
| 2026-04-26 23:40 | 45.90339 | 17.40311 | 32261 ft | 403 kts | 301° |
| 2026-04-26 23:41 | 45.93276 | 17.33457 | 32264 ft | 402 kts | 300° |
| 2026-04-26 23:41 | 45.96204 | 17.26606 | 32264 ft | 402 kts | 300° |
| 2026-04-26 23:42 | 45.99123 | 17.19758 | 32273 ft | 402 kts | 300° |
| 2026-04-26 23:42 | 46.03493 | 17.09475 | 32261 ft | 401 kts | 300° |
| 2026-04-26 23:43 | 46.06382 | 17.02657 | 32268 ft | 401 kts | 300° |
| 2026-04-26 23:43 | 46.09283 | 16.95795 | 32266 ft | 401 kts | 300° |
| 2026-04-26 23:44 | 46.12178 | 16.88929 | 32264 ft | 401 kts | 300° |
| 2026-04-26 23:44 | 46.15072 | 16.82048 | 32273 ft | 401 kts | 300° |
| 2026-04-26 23:45 | 46.17961 | 16.75162 | 32270 ft | 401 kts | 300° |
| 2026-04-26 23:45 | 46.20846 | 16.68267 | 32269 ft | 401 kts | 300° |
| 2026-04-26 23:46 | 46.23727 | 16.61366 | 32273 ft | 401 kts | 300° |
| 2026-04-26 23:46 | 46.26589 | 16.54493 | 32275 ft | 401 kts | 299° |
| 2026-04-26 23:47 | 46.29476 | 16.47543 | 32281 ft | 401 kts | 299° |
| 2026-04-26 23:47 | 46.32339 | 16.40632 | 32272 ft | 400 kts | 299° |
| 2026-04-26 23:48 | 46.35174 | 16.33774 | 32273 ft | 399 kts | 299° |
| 2026-04-26 23:48 | 46.38078 | 16.26937 | 32272 ft | 399 kts | 304° |
| 2026-04-26 23:49 | 46.41715 | 16.20831 | 32275 ft | 401 kts | 309° |
| 2026-04-26 23:49 | 46.45428 | 16.14804 | 32293 ft | 401 kts | 309° |
| 2026-04-26 23:50 | 46.49125 | 16.08754 | 32282 ft | 401 kts | 308° |
| 2026-04-26 23:50 | 46.52811 | 16.02677 | 32280 ft | 401 kts | 308° |
| 2026-04-26 23:51 | 46.56491 | 15.96583 | 32281 ft | 401 kts | 308° |
| 2026-04-26 23:51 | 46.60162 | 15.90486 | 32292 ft | 401 kts | 308° |
| 2026-04-26 23:52 | 46.63831 | 15.84380 | 32287 ft | 401 kts | 308° |
| 2026-04-26 23:52 | 46.67495 | 15.78269 | 32284 ft | 401 kts | 308° |
| 2026-04-26 23:53 | 46.71133 | 15.72188 | 32288 ft | 400 kts | 308° |
| 2026-04-26 23:53 | 46.74790 | 15.66061 | 32290 ft | 400 kts | 308° |
| 2026-04-26 23:54 | 46.78439 | 15.59934 | 32285 ft | 400 kts | 308° |
| 2026-04-26 23:54 | 46.82080 | 15.53808 | 32289 ft | 399 kts | 308° |
| 2026-04-26 23:55 | 46.85713 | 15.47679 | 32291 ft | 398 kts | 308° |
| 2026-04-26 23:55 | 46.89335 | 15.41556 | 32291 ft | 398 kts | 308° |
| 2026-04-26 23:56 | 46.92947 | 15.35436 | 32294 ft | 397 kts | 308° |
| 2026-04-26 23:56 | 46.96555 | 15.29310 | 32294 ft | 397 kts | 308° |
| 2026-04-26 23:57 | 47.00156 | 15.23181 | 32306 ft | 397 kts | 307° |
| 2026-04-26 23:57 | 47.03730 | 15.17082 | 32289 ft | 397 kts | 307° |
| 2026-04-26 23:58 | 47.07332 | 15.10925 | 32284 ft | 397 kts | 307° |
| 2026-04-26 23:58 | 47.10929 | 15.04762 | 32291 ft | 397 kts | 307° |
| 2026-04-26 23:59 | 47.14526 | 14.98584 | 32268 ft | 398 kts | 307° |
| 2026-04-26 23:59 | 47.18117 | 14.92402 | 32266 ft | 396 kts | 307° |
| 2026-04-27 00:00 | 47.19872 | 14.89380 | 32257 ft | 381 kts | 307° |
| 2026-04-27 00:00 | 47.21556 | 14.86480 | 32176 ft | 369 kts | 307° |
| 2026-04-27 00:00 | 47.23210 | 14.83624 | 31868 ft | 363 kts | 307° |
| 2026-04-27 00:00 | 47.24836 | 14.80811 | 31429 ft | 360 kts | 307° |
| 2026-04-27 00:01 | 47.26444 | 14.78026 | 31058 ft | 355 kts | 306° |
| 2026-04-27 00:01 | 47.28038 | 14.75262 | 30648 ft | 353 kts | 306° |
| 2026-04-27 00:01 | 47.29618 | 14.72517 | 30210 ft | 351 kts | 306° |
| 2026-04-27 00:01 | 47.31190 | 14.69784 | 29730 ft | 348 kts | 306° |
| 2026-04-27 00:02 | 47.32746 | 14.67078 | 29300 ft | 344 kts | 306° |
| 2026-04-27 00:02 | 47.34281 | 14.64408 | 28872 ft | 340 kts | 307° |
| 2026-04-27 00:02 | 47.35800 | 14.61763 | 28460 ft | 336 kts | 306° |
| 2026-04-27 00:02 | 47.37300 | 14.59147 | 28058 ft | 332 kts | 306° |
| 2026-04-27 00:03 | 47.38783 | 14.56558 | 27648 ft | 329 kts | 306° |
| 2026-04-27 00:03 | 47.40254 | 14.53988 | 27244 ft | 326 kts | 306° |
| 2026-04-27 00:03 | 47.41713 | 14.51435 | 26857 ft | 324 kts | 306° |
| 2026-04-27 00:03 | 47.43163 | 14.48897 | 26461 ft | 322 kts | 307° |
| 2026-04-27 00:04 | 47.44604 | 14.46372 | 26068 ft | 320 kts | 307° |
| 2026-04-27 00:04 | 47.46032 | 14.43866 | 25676 ft | 318 kts | 307° |
| 2026-04-27 00:04 | 47.47452 | 14.41373 | 25297 ft | 316 kts | 307° |
| 2026-04-27 00:04 | 47.48864 | 14.38893 | 24935 ft | 314 kts | 307° |
| 2026-04-27 00:05 | 47.50268 | 14.36423 | 24553 ft | 314 kts | 307° |
| 2026-04-27 00:05 | 47.51669 | 14.33954 | 24184 ft | 313 kts | 307° |
| 2026-04-27 00:05 | 47.53049 | 14.31523 | 23777 ft | 312 kts | 307° |
| 2026-04-27 00:05 | 47.54441 | 14.29070 | 23363 ft | 310 kts | 307° |
| 2026-04-27 00:06 | 47.55824 | 14.26628 | 22958 ft | 309 kts | 308° |
| 2026-04-27 00:06 | 47.57199 | 14.24199 | 22567 ft | 307 kts | 308° |
| 2026-04-27 00:06 | 47.58567 | 14.21780 | 22184 ft | 305 kts | 308° |
| 2026-04-27 00:06 | 47.59921 | 14.19384 | 21822 ft | 303 kts | 308° |
| 2026-04-27 00:07 | 47.61267 | 14.16999 | 21462 ft | 301 kts | 308° |
| 2026-04-27 00:07 | 47.62603 | 14.14631 | 21109 ft | 299 kts | 308° |
| 2026-04-27 00:07 | 47.63933 | 14.12270 | 20746 ft | 297 kts | 308° |
| 2026-04-27 00:07 | 47.65257 | 14.09919 | 20391 ft | 296 kts | 308° |
| 2026-04-27 00:08 | 47.66573 | 14.07580 | 20003 ft | 294 kts | 309° |
| 2026-04-27 00:08 | 47.67875 | 14.05265 | 19676 ft | 291 kts | 309° |
| 2026-04-27 00:08 | 47.69164 | 14.02969 | 19331 ft | 289 kts | 309° |
| 2026-04-27 00:08 | 47.70452 | 14.00675 | 18988 ft | 289 kts | 309° |
| 2026-04-27 00:09 | 47.71742 | 13.98375 | 18642 ft | 293 kts | 309° |
| 2026-04-27 00:09 | 47.73060 | 13.96021 | 18216 ft | 299 kts | 309° |
| 2026-04-27 00:09 | 47.74346 | 13.93577 | 17814 ft | 301 kts | 300° |
| 2026-04-27 00:09 | 47.75162 | 13.90727 | 17454 ft | 299 kts | 290° |
| 2026-04-27 00:10 | 47.75868 | 13.87830 | 17074 ft | 297 kts | 290° |
| 2026-04-27 00:10 | 47.76572 | 13.84953 | 16708 ft | 296 kts | 290° |
| 2026-04-27 00:10 | 47.77282 | 13.82088 | 16347 ft | 294 kts | 290° |
| 2026-04-27 00:10 | 47.77994 | 13.79245 | 15994 ft | 293 kts | 290° |
| 2026-04-27 00:11 | 47.78706 | 13.76415 | 15642 ft | 292 kts | 290° |
| 2026-04-27 00:11 | 47.79416 | 13.73599 | 15280 ft | 290 kts | 290° |
| 2026-04-27 00:11 | 47.80124 | 13.70794 | 14936 ft | 288 kts | 290° |
| 2026-04-27 00:11 | 47.80822 | 13.68013 | 14589 ft | 287 kts | 290° |
| 2026-04-27 00:12 | 47.81519 | 13.65237 | 14236 ft | 286 kts | 290° |
| 2026-04-27 00:12 | 47.82215 | 13.62468 | 13870 ft | 285 kts | 289° |
| 2026-04-27 00:12 | 47.82905 | 13.59705 | 13489 ft | 284 kts | 289° |
| 2026-04-27 00:12 | 47.83594 | 13.56950 | 13107 ft | 284 kts | 289° |
| 2026-04-27 00:13 | 47.84282 | 13.54197 | 12757 ft | 283 kts | 289° |
| 2026-04-27 00:13 | 47.84965 | 13.51458 | 12395 ft | 282 kts | 289° |
| 2026-04-27 00:13 | 47.85643 | 13.48740 | 12056 ft | 279 kts | 289° |
| 2026-04-27 00:13 | 47.86317 | 13.46034 | 11718 ft | 278 kts | 289° |
| 2026-04-27 00:14 | 47.86987 | 13.43341 | 11387 ft | 277 kts | 289° |
| 2026-04-27 00:14 | 47.87656 | 13.40644 | 11031 ft | 276 kts | 289° |
| 2026-04-27 00:14 | 47.88318 | 13.37975 | 10706 ft | 274 kts | 289° |
| 2026-04-27 00:14 | 47.88974 | 13.35326 | 10426 ft | 271 kts | 289° |
| 2026-04-27 00:15 | 47.89625 | 13.32695 | 10141 ft | 269 kts | 289° |
| 2026-04-27 00:15 | 47.90272 | 13.30077 | 9852 ft | 265 kts | 289° |
| 2026-04-27 00:15 | 47.90910 | 13.27499 | 9399 ft | 267 kts | 289° |
| 2026-04-27 00:15 | 47.91546 | 13.24917 | 9060 ft | 266 kts | 289° |
| 2026-04-27 00:16 | 47.92185 | 13.22323 | 8710 ft | 266 kts | 289° |
| 2026-04-27 00:16 | 47.92821 | 13.19736 | 8367 ft | 266 kts | 289° |
| 2026-04-27 00:16 | 47.93457 | 13.17149 | 8024 ft | 265 kts | 289° |
| 2026-04-27 00:16 | 47.94091 | 13.14565 | 7675 ft | 265 kts | 289° |
| 2026-04-27 00:17 | 47.94718 | 13.12004 | 7342 ft | 260 kts | 289° |
| 2026-04-27 00:17 | 47.95324 | 13.09531 | 7040 ft | 255 kts | 289° |
| 2026-04-27 00:17 | 47.95927 | 13.07067 | 6711 ft | 251 kts | 289° |
| 2026-04-27 00:17 | 47.96517 | 13.04652 | 6379 ft | 245 kts | 289° |
| 2026-04-27 00:18 | 47.97085 | 13.02329 | 6249 ft | 232 kts | 290° |
| 2026-04-27 00:18 | 47.97627 | 13.00106 | 6156 ft | 222 kts | 289° |
| 2026-04-27 00:18 | 47.98139 | 12.98006 | 6045 ft | 208 kts | 290° |
| 2026-04-27 00:18 | 47.98616 | 12.96045 | 5967 ft | 197 kts | 289° |
| 2026-04-27 00:19 | 47.99086 | 12.94099 | 5712 ft | 201 kts | 287° |
| 2026-04-27 00:19 | 47.99145 | 12.92046 | 5442 ft | 201 kts | 252° |
| 2026-04-27 00:19 | 47.98402 | 12.90318 | 5214 ft | 201 kts | 221° |
| 2026-04-27 00:19 | 47.97147 | 12.89404 | 4906 ft | 206 kts | 190° |
| 2026-04-27 00:20 | 47.95777 | 12.89758 | 4713 ft | 200 kts | 149° |
| 2026-04-27 00:20 | 47.94564 | 12.90805 | 4468 ft | 205 kts | 159° |
| 2026-04-27 00:20 | 47.93243 | 12.91512 | 4219 ft | 200 kts | 158° |
| 2026-04-27 00:20 | 47.92409 | 12.92062 | 4045 ft | 195 kts | 155° |
| 2026-04-27 00:21 | 47.91191 | 12.92873 | 3779 ft | 188 kts | 156° |
| 2026-04-27 00:21 | 47.90018 | 12.93626 | 3534 ft | 178 kts | 156° |
| 2026-04-27 00:21 | 47.88922 | 12.94320 | 3335 ft | 162 kts | 156° |
| 2026-04-27 00:21 | 47.87879 | 12.94981 | 3101 ft | 164 kts | 156° |
| 2026-04-27 00:22 | 47.86845 | 12.95636 | 2887 ft | 160 kts | 156° |
| 2026-04-27 00:22 | 47.85833 | 12.96287 | 2666 ft | 157 kts | 155° |
| 2026-04-27 00:22 | 47.84836 | 12.96950 | 2431 ft | 157 kts | 156° |
| 2026-04-27 00:22 | 47.83823 | 12.97567 | 2204 ft | 157 kts | 158° |
| 2026-04-27 00:23 | 47.82811 | 12.98187 | 1996 ft | 157 kts | 156° |
| 2026-04-27 00:23 | 47.81815 | 12.98841 | 1774 ft | 156 kts | 156° |
| 2026-04-27 00:23 | 47.80815 | 12.99457 | 1576 ft | 154 kts | 157° |
| 2026-04-27 00:23 | 47.79859 | 13.00062 | 1420 ft | 142 kts | 157° |
| 2026-04-27 00:24 | 47.79143 | 13.00515 | 1418 ft | 80 kts | 157° |
| 2026-04-27 00:24 | 47.78829 | 13.00714 | 1420 ft | 18 kts | 157° |
| 2026-04-27 00:24 | 47.78813 | 13.00724 | 1419 ft | 0 kts | 156° |
| 2026-04-27 00:25 | 47.78768 | 13.00752 | 1420 ft | 13 kts | 158° |
| 2026-04-27 00:25 | 47.78666 | 13.00817 | 1419 ft | 17 kts | 158° |
| 2026-04-27 00:25 | 47.78570 | 13.00838 | 1418 ft | 12 kts | 217° |
| 2026-04-27 00:25 | 47.78533 | 13.00726 | 1419 ft | 12 kts | 254° |
| 2026-04-27 00:26 | 47.78558 | 13.00619 | 1421 ft | 12 kts | 328° |
| 2026-04-27 00:26 | 47.78632 | 13.00569 | 1420 ft | 11 kts | 337° |
| 2026-04-27 00:26 | 47.78708 | 13.00522 | 1419 ft | 13 kts | 337° |
| 2026-04-27 00:26 | 47.78804 | 13.00461 | 1419 ft | 17 kts | 336° |
| 2026-04-27 00:27 | 47.78918 | 13.00389 | 1418 ft | 11 kts | 338° |
| 2026-04-27 00:27 | 47.78954 | 13.00310 | 1421 ft | 10 kts | 272° |
| 2026-04-27 00:27 | 47.78956 | 13.00210 | 1421 ft | 10 kts | 271° |
| 2026-04-27 00:27 | 47.78962 | 13.00113 | 1421 ft | 8 kts | 281° |
| 2026-04-27 00:28 | 47.78969 | 13.00067 | 1421 ft | 4 kts | 282° |
| 2026-04-27 00:28 | 47.78972 | 13.00041 | 1421 ft | 1 kts | 282° |
| 2026-04-27 00:28 | 47.78974 | 13.00030 | 1421 ft | 0 kts | 282° |